sensor_id;sensor_type;location;lat;lon;timestamp;P1;durP1;ratioP1;P2;durP2;ratioP2
65096;SDS011;51686;46.758;4.356;2024-01-27T00:00:15;6.35;;;2.65;;
65096;SDS011;51686;46.758;4.356;2024-01-27T00:03:03;7.78;;;2.30;;
65096;SDS011;51686;46.758;4.356;2024-01-27T00:05:50;5.80;;;2.15;;
65096;SDS011;51686;46.758;4.356;2024-01-27T00:08:37;7.35;;;2.35;;
65096;SDS011;51686;46.758;4.356;2024-01-27T00:11:24;6.15;;;2.33;;
65096;SDS011;51686;46.758;4.356;2024-01-27T00:14:13;6.68;;;2.40;;
65096;SDS011;51686;46.758;4.356;2024-01-27T00:17:00;7.07;;;2.40;;
65096;SDS011;51686;46.758;4.356;2024-01-27T00:19:47;6.93;;;2.70;;
65096;SDS011;51686;46.758;4.356;2024-01-27T00:22:34;4.82;;;2.13;;
65096;SDS011;51686;46.758;4.356;2024-01-27T00:25:20;6.68;;;2.25;;
65096;SDS011;51686;46.758;4.356;2024-01-27T00:28:07;4.95;;;2.08;;
65096;SDS011;51686;46.758;4.356;2024-01-27T00:30:54;6.47;;;2.38;;
65096;SDS011;51686;46.758;4.356;2024-01-27T00:33:41;5.47;;;2.50;;
65096;SDS011;51686;46.758;4.356;2024-01-27T00:36:28;6.93;;;2.50;;
65096;SDS011;51686;46.758;4.356;2024-01-27T00:39:15;8.30;;;2.40;;
65096;SDS011;51686;46.758;4.356;2024-01-27T00:42:03;5.38;;;2.20;;
65096;SDS011;51686;46.758;4.356;2024-01-27T00:44:50;5.85;;;2.22;;
65096;SDS011;51686;46.758;4.356;2024-01-27T00:47:37;8.60;;;2.47;;
65096;SDS011;51686;46.758;4.356;2024-01-27T00:50:24;6.35;;;2.10;;
65096;SDS011;51686;46.758;4.356;2024-01-27T00:53:12;7.53;;;2.42;;
65096;SDS011;51686;46.758;4.356;2024-01-27T00:55:59;6.22;;;2.25;;
65096;SDS011;51686;46.758;4.356;2024-01-27T00:58:46;7.75;;;2.67;;
65096;SDS011;51686;46.758;4.356;2024-01-27T01:01:33;5.88;;;2.20;;
65096;SDS011;51686;46.758;4.356;2024-01-27T01:04:20;6.43;;;2.60;;
65096;SDS011;51686;46.758;4.356;2024-01-27T01:07:07;5.53;;;2.20;;
65096;SDS011;51686;46.758;4.356;2024-01-27T01:09:54;5.57;;;2.22;;
65096;SDS011;51686;46.758;4.356;2024-01-27T01:12:41;7.35;;;2.50;;
65096;SDS011;51686;46.758;4.356;2024-01-27T01:15:28;6.30;;;2.53;;
65096;SDS011;51686;46.758;4.356;2024-01-27T01:18:15;6.18;;;2.30;;
65096;SDS011;51686;46.758;4.356;2024-01-27T01:21:02;6.28;;;2.45;;
65096;SDS011;51686;46.758;4.356;2024-01-27T01:23:49;7.18;;;2.28;;
65096;SDS011;51686;46.758;4.356;2024-01-27T01:26:36;7.43;;;2.30;;
65096;SDS011;51686;46.758;4.356;2024-01-27T01:29:23;5.40;;;2.15;;
65096;SDS011;51686;46.758;4.356;2024-01-27T01:32:10;7.32;;;2.15;;
65096;SDS011;51686;46.758;4.356;2024-01-27T01:34:57;7.22;;;2.22;;
65096;SDS011;51686;46.758;4.356;2024-01-27T01:37:44;6.53;;;2.38;;
65096;SDS011;51686;46.758;4.356;2024-01-27T01:40:30;4.88;;;2.20;;
65096;SDS011;51686;46.758;4.356;2024-01-27T01:43:17;6.32;;;2.50;;
65096;SDS011;51686;46.758;4.356;2024-01-27T01:46:04;6.38;;;2.30;;
65096;SDS011;51686;46.758;4.356;2024-01-27T01:48:51;8.48;;;2.40;;
65096;SDS011;51686;46.758;4.356;2024-01-27T01:51:39;6.43;;;2.20;;
65096;SDS011;51686;46.758;4.356;2024-01-27T01:54:26;7.22;;;2.50;;
65096;SDS011;51686;46.758;4.356;2024-01-27T01:57:15;5.75;;;2.22;;
65096;SDS011;51686;46.758;4.356;2024-01-27T02:00:02;5.60;;;2.35;;
65096;SDS011;51686;46.758;4.356;2024-01-27T02:02:49;5.53;;;2.28;;
65096;SDS011;51686;46.758;4.356;2024-01-27T02:05:36;6.88;;;2.30;;
65096;SDS011;51686;46.758;4.356;2024-01-27T02:08:23;6.70;;;2.30;;
65096;SDS011;51686;46.758;4.356;2024-01-27T02:11:10;6.95;;;2.42;;
65096;SDS011;51686;46.758;4.356;2024-01-27T02:13:57;7.20;;;2.50;;
65096;SDS011;51686;46.758;4.356;2024-01-27T02:16:44;6.07;;;2.08;;
65096;SDS011;51686;46.758;4.356;2024-01-27T02:19:31;6.82;;;2.38;;
65096;SDS011;51686;46.758;4.356;2024-01-27T02:22:18;6.90;;;2.50;;
65096;SDS011;51686;46.758;4.356;2024-01-27T02:25:05;6.07;;;2.35;;
65096;SDS011;51686;46.758;4.356;2024-01-27T02:27:52;6.75;;;2.20;;
65096;SDS011;51686;46.758;4.356;2024-01-27T02:30:39;5.65;;;2.60;;
65096;SDS011;51686;46.758;4.356;2024-01-27T02:33:26;5.00;;;2.10;;
65096;SDS011;51686;46.758;4.356;2024-01-27T02:36:13;7.68;;;2.65;;
65096;SDS011;51686;46.758;4.356;2024-01-27T02:39:00;5.90;;;2.13;;
65096;SDS011;51686;46.758;4.356;2024-01-27T02:41:48;7.05;;;2.30;;
65096;SDS011;51686;46.758;4.356;2024-01-27T02:44:35;5.25;;;2.00;;
65096;SDS011;51686;46.758;4.356;2024-01-27T02:47:21;5.32;;;1.83;;
65096;SDS011;51686;46.758;4.356;2024-01-27T02:50:09;5.72;;;2.10;;
65096;SDS011;51686;46.758;4.356;2024-01-27T02:52:56;4.10;;;2.00;;
65096;SDS011;51686;46.758;4.356;2024-01-27T02:55:42;5.63;;;2.10;;
65096;SDS011;51686;46.758;4.356;2024-01-27T02:58:29;5.97;;;2.20;;
65096;SDS011;51686;46.758;4.356;2024-01-27T03:01:16;5.63;;;2.08;;
65096;SDS011;51686;46.758;4.356;2024-01-27T03:04:03;7.80;;;2.40;;
65096;SDS011;51686;46.758;4.356;2024-01-27T03:06:50;6.28;;;2.35;;
65096;SDS011;51686;46.758;4.356;2024-01-27T03:09:37;7.30;;;2.20;;
65096;SDS011;51686;46.758;4.356;2024-01-27T03:12:24;6.40;;;2.20;;
65096;SDS011;51686;46.758;4.356;2024-01-27T03:15:11;4.57;;;2.03;;
65096;SDS011;51686;46.758;4.356;2024-01-27T03:17:58;4.50;;;2.00;;
65096;SDS011;51686;46.758;4.356;2024-01-27T03:20:45;5.47;;;2.30;;
65096;SDS011;51686;46.758;4.356;2024-01-27T03:23:32;5.70;;;2.25;;
65096;SDS011;51686;46.758;4.356;2024-01-27T03:26:19;7.18;;;2.40;;
65096;SDS011;51686;46.758;4.356;2024-01-27T03:29:06;6.93;;;2.20;;
65096;SDS011;51686;46.758;4.356;2024-01-27T03:31:54;7.20;;;2.17;;
65096;SDS011;51686;46.758;4.356;2024-01-27T03:34:44;5.32;;;2.10;;
65096;SDS011;51686;46.758;4.356;2024-01-27T03:37:34;6.28;;;2.30;;
65096;SDS011;51686;46.758;4.356;2024-01-27T03:40:21;5.13;;;2.20;;
65096;SDS011;51686;46.758;4.356;2024-01-27T03:43:08;6.10;;;2.05;;
65096;SDS011;51686;46.758;4.356;2024-01-27T03:45:54;7.20;;;2.40;;
65096;SDS011;51686;46.758;4.356;2024-01-27T03:48:41;7.65;;;2.38;;
65096;SDS011;51686;46.758;4.356;2024-01-27T03:51:28;7.00;;;2.28;;
65096;SDS011;51686;46.758;4.356;2024-01-27T03:54:15;5.68;;;2.10;;
65096;SDS011;51686;46.758;4.356;2024-01-27T03:57:02;6.35;;;2.00;;
65096;SDS011;51686;46.758;4.356;2024-01-27T03:59:49;5.03;;;2.00;;
65096;SDS011;51686;46.758;4.356;2024-01-27T04:02:36;5.68;;;2.17;;
65096;SDS011;51686;46.758;4.356;2024-01-27T04:05:23;6.75;;;2.25;;
65096;SDS011;51686;46.758;4.356;2024-01-27T04:08:10;6.03;;;2.50;;
65096;SDS011;51686;46.758;4.356;2024-01-27T04:10:57;6.78;;;2.30;;
65096;SDS011;51686;46.758;4.356;2024-01-27T04:13:44;6.47;;;2.40;;
65096;SDS011;51686;46.758;4.356;2024-01-27T04:16:31;7.60;;;2.60;;
65096;SDS011;51686;46.758;4.356;2024-01-27T04:19:18;4.90;;;2.17;;
65096;SDS011;51686;46.758;4.356;2024-01-27T04:22:05;6.63;;;2.70;;
65096;SDS011;51686;46.758;4.356;2024-01-27T04:24:52;5.70;;;2.20;;
65096;SDS011;51686;46.758;4.356;2024-01-27T04:27:38;4.78;;;2.15;;
65096;SDS011;51686;46.758;4.356;2024-01-27T04:30:26;5.95;;;2.15;;
65096;SDS011;51686;46.758;4.356;2024-01-27T04:33:13;5.75;;;1.95;;
65096;SDS011;51686;46.758;4.356;2024-01-27T04:36:00;4.93;;;1.90;;
65096;SDS011;51686;46.758;4.356;2024-01-27T04:38:47;7.18;;;2.38;;
65096;SDS011;51686;46.758;4.356;2024-01-27T04:41:34;5.72;;;2.10;;
65096;SDS011;51686;46.758;4.356;2024-01-27T04:44:21;4.65;;;2.00;;
65096;SDS011;51686;46.758;4.356;2024-01-27T04:47:08;6.60;;;2.20;;
65096;SDS011;51686;46.758;4.356;2024-01-27T04:49:55;5.10;;;2.00;;
65096;SDS011;51686;46.758;4.356;2024-01-27T04:52:42;6.65;;;2.10;;
65096;SDS011;51686;46.758;4.356;2024-01-27T04:55:29;5.68;;;2.17;;
65096;SDS011;51686;46.758;4.356;2024-01-27T04:58:15;5.70;;;2.10;;
65096;SDS011;51686;46.758;4.356;2024-01-27T05:01:02;7.18;;;2.25;;
65096;SDS011;51686;46.758;4.356;2024-01-27T05:03:49;6.13;;;2.25;;
65096;SDS011;51686;46.758;4.356;2024-01-27T05:06:36;6.70;;;2.40;;
65096;SDS011;51686;46.758;4.356;2024-01-27T05:09:25;9.13;;;2.80;;
65096;SDS011;51686;46.758;4.356;2024-01-27T05:12:12;8.90;;;2.65;;
65096;SDS011;51686;46.758;4.356;2024-01-27T05:14:59;5.70;;;2.38;;
65096;SDS011;51686;46.758;4.356;2024-01-27T05:17:46;6.68;;;2.20;;
65096;SDS011;51686;46.758;4.356;2024-01-27T05:20:33;4.95;;;2.13;;
65096;SDS011;51686;46.758;4.356;2024-01-27T05:23:20;7.80;;;2.42;;
65096;SDS011;51686;46.758;4.356;2024-01-27T05:26:07;5.72;;;2.30;;
65096;SDS011;51686;46.758;4.356;2024-01-27T05:28:54;5.68;;;2.15;;
65096;SDS011;51686;46.758;4.356;2024-01-27T05:31:41;6.55;;;2.20;;
65096;SDS011;51686;46.758;4.356;2024-01-27T05:34:30;7.50;;;2.55;;
65096;SDS011;51686;46.758;4.356;2024-01-27T05:37:17;5.65;;;2.30;;
65096;SDS011;51686;46.758;4.356;2024-01-27T05:40:04;4.00;;;2.05;;
65096;SDS011;51686;46.758;4.356;2024-01-27T05:42:52;7.25;;;2.58;;
65096;SDS011;51686;46.758;4.356;2024-01-27T05:45:39;7.38;;;2.63;;
65096;SDS011;51686;46.758;4.356;2024-01-27T05:48:26;7.38;;;2.28;;
65096;SDS011;51686;46.758;4.356;2024-01-27T05:51:13;6.28;;;2.20;;
65096;SDS011;51686;46.758;4.356;2024-01-27T05:54:00;7.82;;;2.40;;
65096;SDS011;51686;46.758;4.356;2024-01-27T05:56:47;7.35;;;2.40;;
65096;SDS011;51686;46.758;4.356;2024-01-27T05:59:34;5.57;;;2.28;;
65096;SDS011;51686;46.758;4.356;2024-01-27T06:02:21;4.70;;;2.13;;
65096;SDS011;51686;46.758;4.356;2024-01-27T06:05:09;5.97;;;2.35;;
65096;SDS011;51686;46.758;4.356;2024-01-27T06:07:56;5.57;;;2.28;;
65096;SDS011;51686;46.758;4.356;2024-01-27T06:10:43;6.05;;;2.25;;
65096;SDS011;51686;46.758;4.356;2024-01-27T06:13:30;6.88;;;2.78;;
65096;SDS011;51686;46.758;4.356;2024-01-27T06:16:20;5.70;;;2.10;;
65096;SDS011;51686;46.758;4.356;2024-01-27T06:19:07;7.20;;;2.60;;
65096;SDS011;51686;46.758;4.356;2024-01-27T06:21:54;7.70;;;2.72;;
65096;SDS011;51686;46.758;4.356;2024-01-27T06:24:42;6.38;;;2.40;;
65096;SDS011;51686;46.758;4.356;2024-01-27T06:27:30;10.05;;;2.45;;
65096;SDS011;51686;46.758;4.356;2024-01-27T06:30:17;5.07;;;2.28;;
65096;SDS011;51686;46.758;4.356;2024-01-27T06:33:05;8.10;;;2.55;;
65096;SDS011;51686;46.758;4.356;2024-01-27T06:35:52;6.72;;;2.10;;
65096;SDS011;51686;46.758;4.356;2024-01-27T06:38:38;7.82;;;2.28;;
65096;SDS011;51686;46.758;4.356;2024-01-27T06:41:25;5.93;;;2.17;;
65096;SDS011;51686;46.758;4.356;2024-01-27T06:44:12;6.20;;;2.35;;
65096;SDS011;51686;46.758;4.356;2024-01-27T06:46:59;5.15;;;2.20;;
65096;SDS011;51686;46.758;4.356;2024-01-27T06:49:46;10.40;;;3.20;;
65096;SDS011;51686;46.758;4.356;2024-01-27T06:52:33;6.43;;;2.30;;
65096;SDS011;51686;46.758;4.356;2024-01-27T06:55:20;6.82;;;2.20;;
65096;SDS011;51686;46.758;4.356;2024-01-27T06:58:07;6.30;;;2.20;;
65096;SDS011;51686;46.758;4.356;2024-01-27T07:00:54;5.70;;;2.22;;
65096;SDS011;51686;46.758;4.356;2024-01-27T07:03:41;7.60;;;2.55;;
65096;SDS011;51686;46.758;4.356;2024-01-27T07:06:28;5.88;;;2.20;;
65096;SDS011;51686;46.758;4.356;2024-01-27T07:09:15;6.35;;;2.30;;
65096;SDS011;51686;46.758;4.356;2024-01-27T07:12:02;7.50;;;2.40;;
65096;SDS011;51686;46.758;4.356;2024-01-27T07:14:49;6.65;;;2.20;;
65096;SDS011;51686;46.758;4.356;2024-01-27T07:17:42;8.63;;;2.40;;
65096;SDS011;51686;46.758;4.356;2024-01-27T07:20:28;6.50;;;2.60;;
65096;SDS011;51686;46.758;4.356;2024-01-27T07:23:15;9.02;;;2.58;;
65096;SDS011;51686;46.758;4.356;2024-01-27T07:26:02;7.80;;;3.00;;
65096;SDS011;51686;46.758;4.356;2024-01-27T07:28:50;7.35;;;2.80;;
65096;SDS011;51686;46.758;4.356;2024-01-27T07:31:37;6.97;;;2.67;;
65096;SDS011;51686;46.758;4.356;2024-01-27T07:34:25;6.95;;;2.72;;
65096;SDS011;51686;46.758;4.356;2024-01-27T07:37:12;8.88;;;2.83;;
65096;SDS011;51686;46.758;4.356;2024-01-27T07:39:59;8.95;;;2.97;;
65096;SDS011;51686;46.758;4.356;2024-01-27T07:42:46;7.30;;;2.50;;
65096;SDS011;51686;46.758;4.356;2024-01-27T07:45:33;6.97;;;2.90;;
65096;SDS011;51686;46.758;4.356;2024-01-27T07:48:20;8.38;;;2.92;;
65096;SDS011;51686;46.758;4.356;2024-01-27T07:51:07;8.55;;;2.63;;
65096;SDS011;51686;46.758;4.356;2024-01-27T07:53:54;11.27;;;2.83;;
65096;SDS011;51686;46.758;4.356;2024-01-27T07:56:41;6.03;;;2.38;;
65096;SDS011;51686;46.758;4.356;2024-01-27T07:59:28;8.77;;;2.88;;
65096;SDS011;51686;46.758;4.356;2024-01-27T08:02:15;9.60;;;2.97;;
65096;SDS011;51686;46.758;4.356;2024-01-27T08:05:03;6.20;;;2.60;;
65096;SDS011;51686;46.758;4.356;2024-01-27T08:07:50;9.60;;;2.88;;
65096;SDS011;51686;46.758;4.356;2024-01-27T08:10:37;6.78;;;2.85;;
65096;SDS011;51686;46.758;4.356;2024-01-27T08:13:24;6.50;;;2.58;;
65096;SDS011;51686;46.758;4.356;2024-01-27T08:16:11;7.50;;;2.40;;
65096;SDS011;51686;46.758;4.356;2024-01-27T08:21:47;7.22;;;2.60;;
65096;SDS011;51686;46.758;4.356;2024-01-27T08:24:34;9.68;;;2.90;;
65096;SDS011;51686;46.758;4.356;2024-01-27T08:27:22;10.65;;;3.03;;
65096;SDS011;51686;46.758;4.356;2024-01-27T08:30:09;7.45;;;2.65;;
65096;SDS011;51686;46.758;4.356;2024-01-27T08:32:57;8.05;;;2.70;;
65096;SDS011;51686;46.758;4.356;2024-01-27T08:35:46;7.53;;;2.60;;
65096;SDS011;51686;46.758;4.356;2024-01-27T08:38:33;7.93;;;2.40;;
65096;SDS011;51686;46.758;4.356;2024-01-27T08:41:20;7.95;;;2.95;;
65096;SDS011;51686;46.758;4.356;2024-01-27T08:44:06;11.60;;;3.05;;
65096;SDS011;51686;46.758;4.356;2024-01-27T08:46:53;9.35;;;3.10;;
65096;SDS011;51686;46.758;4.356;2024-01-27T08:49:47;9.48;;;2.85;;
65096;SDS011;51686;46.758;4.356;2024-01-27T08:52:34;7.90;;;3.00;;
65096;SDS011;51686;46.758;4.356;2024-01-27T08:55:24;9.20;;;3.00;;
65096;SDS011;51686;46.758;4.356;2024-01-27T08:58:14;7.70;;;2.63;;
65096;SDS011;51686;46.758;4.356;2024-01-27T09:01:01;6.65;;;2.58;;
65096;SDS011;51686;46.758;4.356;2024-01-27T09:03:52;8.98;;;2.58;;
65096;SDS011;51686;46.758;4.356;2024-01-27T09:06:39;8.90;;;2.95;;
65096;SDS011;51686;46.758;4.356;2024-01-27T09:09:26;7.97;;;3.13;;
65096;SDS011;51686;46.758;4.356;2024-01-27T09:12:13;8.52;;;3.25;;
65096;SDS011;51686;46.758;4.356;2024-01-27T09:15:00;8.73;;;2.80;;
65096;SDS011;51686;46.758;4.356;2024-01-27T09:17:47;9.32;;;3.00;;
65096;SDS011;51686;46.758;4.356;2024-01-27T09:20:35;7.97;;;2.85;;
65096;SDS011;51686;46.758;4.356;2024-01-27T09:23:22;9.20;;;3.20;;
65096;SDS011;51686;46.758;4.356;2024-01-27T09:26:09;8.52;;;2.88;;
65096;SDS011;51686;46.758;4.356;2024-01-27T09:28:56;7.07;;;2.88;;
65096;SDS011;51686;46.758;4.356;2024-01-27T09:31:43;9.82;;;3.10;;
65096;SDS011;51686;46.758;4.356;2024-01-27T09:34:30;6.70;;;2.55;;
65096;SDS011;51686;46.758;4.356;2024-01-27T09:37:17;8.48;;;2.88;;
65096;SDS011;51686;46.758;4.356;2024-01-27T09:40:04;9.52;;;2.70;;
65096;SDS011;51686;46.758;4.356;2024-01-27T09:42:52;7.97;;;2.75;;
65096;SDS011;51686;46.758;4.356;2024-01-27T09:45:41;7.57;;;2.80;;
65096;SDS011;51686;46.758;4.356;2024-01-27T09:48:29;7.60;;;2.70;;
65096;SDS011;51686;46.758;4.356;2024-01-27T09:51:16;10.07;;;3.00;;
65096;SDS011;51686;46.758;4.356;2024-01-27T09:54:03;6.85;;;2.72;;
65096;SDS011;51686;46.758;4.356;2024-01-27T09:56:50;9.02;;;2.95;;
65096;SDS011;51686;46.758;4.356;2024-01-27T09:59:39;8.20;;;2.97;;
65096;SDS011;51686;46.758;4.356;2024-01-27T10:02:28;7.40;;;3.00;;
65096;SDS011;51686;46.758;4.356;2024-01-27T10:05:17;9.13;;;2.97;;
65096;SDS011;51686;46.758;4.356;2024-01-27T10:08:08;7.30;;;2.80;;
65096;SDS011;51686;46.758;4.356;2024-01-27T10:10:55;6.47;;;2.78;;
65096;SDS011;51686;46.758;4.356;2024-01-27T10:13:43;9.50;;;2.65;;
65096;SDS011;51686;46.758;4.356;2024-01-27T10:16:39;7.05;;;2.75;;
65096;SDS011;51686;46.758;4.356;2024-01-27T10:19:26;6.15;;;2.70;;
65096;SDS011;51686;46.758;4.356;2024-01-27T10:22:13;9.45;;;2.90;;
65096;SDS011;51686;46.758;4.356;2024-01-27T10:25:00;9.10;;;3.05;;
65096;SDS011;51686;46.758;4.356;2024-01-27T10:27:48;6.97;;;2.90;;
65096;SDS011;51686;46.758;4.356;2024-01-27T10:30:35;8.93;;;2.70;;
65096;SDS011;51686;46.758;4.356;2024-01-27T10:33:22;10.15;;;2.92;;
65096;SDS011;51686;46.758;4.356;2024-01-27T10:36:09;8.25;;;2.78;;
65096;SDS011;51686;46.758;4.356;2024-01-27T10:38:56;7.85;;;2.58;;
65096;SDS011;51686;46.758;4.356;2024-01-27T10:41:44;10.10;;;2.92;;
65096;SDS011;51686;46.758;4.356;2024-01-27T10:44:32;8.07;;;2.60;;
65096;SDS011;51686;46.758;4.356;2024-01-27T10:47:23;7.57;;;2.30;;
65096;SDS011;51686;46.758;4.356;2024-01-27T10:52:59;6.95;;;2.22;;
65096;SDS011;51686;46.758;4.356;2024-01-27T10:55:46;5.88;;;2.50;;
65096;SDS011;51686;46.758;4.356;2024-01-27T10:58:33;8.23;;;2.50;;
65096;SDS011;51686;46.758;4.356;2024-01-27T11:01:27;7.68;;;2.50;;
65096;SDS011;51686;46.758;4.356;2024-01-27T11:04:14;6.32;;;2.65;;
65096;SDS011;51686;46.758;4.356;2024-01-27T11:07:02;8.02;;;2.60;;
65096;SDS011;51686;46.758;4.356;2024-01-27T11:09:49;7.68;;;2.35;;
65096;SDS011;51686;46.758;4.356;2024-01-27T11:12:38;8.70;;;2.75;;
65096;SDS011;51686;46.758;4.356;2024-01-27T11:15:25;7.30;;;2.35;;
65096;SDS011;51686;46.758;4.356;2024-01-27T11:18:12;7.65;;;2.83;;
65096;SDS011;51686;46.758;4.356;2024-01-27T11:21:03;6.57;;;2.33;;
65096;SDS011;51686;46.758;4.356;2024-01-27T11:23:50;8.87;;;2.90;;
65096;SDS011;51686;46.758;4.356;2024-01-27T11:26:37;7.65;;;2.60;;
65096;SDS011;51686;46.758;4.356;2024-01-27T11:29:24;7.15;;;2.30;;
65096;SDS011;51686;46.758;4.356;2024-01-27T11:32:13;6.88;;;2.60;;
65096;SDS011;51686;46.758;4.356;2024-01-27T11:35:01;6.38;;;2.60;;
65096;SDS011;51686;46.758;4.356;2024-01-27T11:37:49;5.38;;;2.22;;
65096;SDS011;51686;46.758;4.356;2024-01-27T11:40:46;7.63;;;2.50;;
65096;SDS011;51686;46.758;4.356;2024-01-27T11:43:33;8.15;;;2.65;;
65096;SDS011;51686;46.758;4.356;2024-01-27T11:46:20;8.48;;;2.67;;
65096;SDS011;51686;46.758;4.356;2024-01-27T11:49:07;7.45;;;2.83;;
65096;SDS011;51686;46.758;4.356;2024-01-27T11:51:56;8.20;;;2.33;;
65096;SDS011;51686;46.758;4.356;2024-01-27T11:54:43;5.80;;;2.30;;
65096;SDS011;51686;46.758;4.356;2024-01-27T11:57:30;8.68;;;2.72;;
65096;SDS011;51686;46.758;4.356;2024-01-27T12:00:17;6.43;;;2.42;;
65096;SDS011;51686;46.758;4.356;2024-01-27T12:03:04;7.45;;;2.65;;
65096;SDS011;51686;46.758;4.356;2024-01-27T12:05:51;7.22;;;2.50;;
65096;SDS011;51686;46.758;4.356;2024-01-27T12:08:38;6.03;;;2.40;;
65096;SDS011;51686;46.758;4.356;2024-01-27T12:11:27;7.60;;;2.38;;
65096;SDS011;51686;46.758;4.356;2024-01-27T12:14:16;7.90;;;2.60;;
65096;SDS011;51686;46.758;4.356;2024-01-27T12:17:03;5.65;;;2.08;;
65096;SDS011;51686;46.758;4.356;2024-01-27T12:19:51;6.75;;;2.50;;
65096;SDS011;51686;46.758;4.356;2024-01-27T12:22:40;7.22;;;2.50;;
65096;SDS011;51686;46.758;4.356;2024-01-27T12:25:27;7.47;;;2.60;;
65096;SDS011;51686;46.758;4.356;2024-01-27T12:28:14;6.72;;;2.38;;
65096;SDS011;51686;46.758;4.356;2024-01-27T12:31:01;7.97;;;2.47;;
65096;SDS011;51686;46.758;4.356;2024-01-27T12:33:51;6.85;;;2.40;;
65096;SDS011;51686;46.758;4.356;2024-01-27T12:36:42;7.53;;;2.80;;
65096;SDS011;51686;46.758;4.356;2024-01-27T12:39:30;6.85;;;2.50;;
65096;SDS011;51686;46.758;4.356;2024-01-27T12:42:17;6.67;;;2.33;;
65096;SDS011;51686;46.758;4.356;2024-01-27T12:45:04;6.72;;;2.30;;
65096;SDS011;51686;46.758;4.356;2024-01-27T12:47:52;7.10;;;2.30;;
65096;SDS011;51686;46.758;4.356;2024-01-27T12:50:39;7.68;;;2.50;;
65096;SDS011;51686;46.758;4.356;2024-01-27T12:53:26;7.85;;;2.45;;
65096;SDS011;51686;46.758;4.356;2024-01-27T12:56:13;6.85;;;2.00;;
65096;SDS011;51686;46.758;4.356;2024-01-27T12:59:01;7.78;;;2.10;;
65096;SDS011;51686;46.758;4.356;2024-01-27T13:01:48;7.57;;;2.30;;
65096;SDS011;51686;46.758;4.356;2024-01-27T13:04:35;6.43;;;2.40;;
65096;SDS011;51686;46.758;4.356;2024-01-27T13:07:22;8.40;;;2.30;;
65096;SDS011;51686;46.758;4.356;2024-01-27T13:10:34;9.13;;;2.70;;
65096;SDS011;51686;46.758;4.356;2024-01-27T13:17:50;6.00;;;2.03;;
65096;SDS011;51686;46.758;4.356;2024-01-27T13:20:54;5.30;;;1.95;;
65096;SDS011;51686;46.758;4.356;2024-01-27T13:23:47;6.75;;;2.00;;
65096;SDS011;51686;46.758;4.356;2024-01-27T13:26:45;5.57;;;2.00;;
65096;SDS011;51686;46.758;4.356;2024-01-27T13:29:43;4.28;;;1.70;;
65096;SDS011;51686;46.758;4.356;2024-01-27T13:32:48;5.00;;;1.80;;
65096;SDS011;51686;46.758;4.356;2024-01-27T13:35:49;5.30;;;1.80;;
65096;SDS011;51686;46.758;4.356;2024-01-27T13:38:58;5.43;;;1.60;;
65096;SDS011;51686;46.758;4.356;2024-01-27T13:42:34;6.30;;;1.83;;
65096;SDS011;51686;46.758;4.356;2024-01-27T13:45:22;6.65;;;1.77;;
65096;SDS011;51686;46.758;4.356;2024-01-27T13:48:54;5.55;;;1.67;;
65096;SDS011;51686;46.758;4.356;2024-01-27T13:52:11;6.47;;;1.77;;
65096;SDS011;51686;46.758;4.356;2024-01-27T13:55:38;6.70;;;2.00;;
65096;SDS011;51686;46.758;4.356;2024-01-27T13:58:57;4.57;;;1.70;;
65096;SDS011;51686;46.758;4.356;2024-01-27T14:02:06;6.95;;;1.80;;
65096;SDS011;51686;46.758;4.356;2024-01-27T14:05:11;7.90;;;2.00;;
65096;SDS011;51686;46.758;4.356;2024-01-27T14:08:22;6.03;;;1.77;;
65096;SDS011;51686;46.758;4.356;2024-01-27T14:11:41;5.82;;;1.80;;
65096;SDS011;51686;46.758;4.356;2024-01-27T14:14:37;5.18;;;1.90;;
65096;SDS011;51686;46.758;4.356;2024-01-27T14:18:05;7.65;;;1.95;;
65096;SDS011;51686;46.758;4.356;2024-01-27T14:21:06;7.25;;;1.70;;
65096;SDS011;51686;46.758;4.356;2024-01-27T14:24:35;7.35;;;1.92;;
65096;SDS011;51686;46.758;4.356;2024-01-27T14:27:26;6.40;;;1.92;;
65096;SDS011;51686;46.758;4.356;2024-01-27T14:34:06;7.65;;;1.98;;
65096;SDS011;51686;46.758;4.356;2024-01-27T14:37:10;6.63;;;2.10;;
65096;SDS011;51686;46.758;4.356;2024-01-27T14:40:00;6.93;;;1.90;;
65096;SDS011;51686;46.758;4.356;2024-01-27T14:42:53;5.43;;;1.83;;
65096;SDS011;51686;46.758;4.356;2024-01-27T14:45:44;4.85;;;1.83;;
65096;SDS011;51686;46.758;4.356;2024-01-27T14:48:38;6.93;;;2.00;;
65096;SDS011;51686;46.758;4.356;2024-01-27T14:51:56;6.75;;;1.90;;
65096;SDS011;51686;46.758;4.356;2024-01-27T14:58:30;10.85;;;2.42;;
65096;SDS011;51686;46.758;4.356;2024-01-27T15:01:26;7.43;;;2.08;;
65096;SDS011;51686;46.758;4.356;2024-01-27T15:04:57;9.65;;;2.42;;
65096;SDS011;51686;46.758;4.356;2024-01-27T15:08:28;5.30;;;2.00;;
65096;SDS011;51686;46.758;4.356;2024-01-27T15:11:40;6.15;;;2.20;;
65096;SDS011;51686;46.758;4.356;2024-01-27T15:14:53;7.28;;;2.03;;
65096;SDS011;51686;46.758;4.356;2024-01-27T15:18:30;8.40;;;2.40;;
65096;SDS011;51686;46.758;4.356;2024-01-27T15:22:29;9.52;;;2.50;;
65096;SDS011;51686;46.758;4.356;2024-01-27T15:25:49;6.22;;;2.05;;
65096;SDS011;51686;46.758;4.356;2024-01-27T15:28:38;7.55;;;2.40;;
65096;SDS011;51686;46.758;4.356;2024-01-27T15:31:25;7.90;;;2.40;;
65096;SDS011;51686;46.758;4.356;2024-01-27T15:34:12;6.88;;;2.30;;
65096;SDS011;51686;46.758;4.356;2024-01-27T15:37:00;7.93;;;2.20;;
65096;SDS011;51686;46.758;4.356;2024-01-27T15:39:47;7.53;;;2.30;;
65096;SDS011;51686;46.758;4.356;2024-01-27T15:42:35;8.10;;;2.33;;
65096;SDS011;51686;46.758;4.356;2024-01-27T15:45:23;8.87;;;2.50;;
65096;SDS011;51686;46.758;4.356;2024-01-27T15:48:10;8.02;;;2.60;;
65096;SDS011;51686;46.758;4.356;2024-01-27T15:54:55;8.00;;;2.60;;
65096;SDS011;51686;46.758;4.356;2024-01-27T15:58:01;7.63;;;2.47;;
65096;SDS011;51686;46.758;4.356;2024-01-27T16:00:52;9.95;;;2.83;;
65096;SDS011;51686;46.758;4.356;2024-01-27T16:03:41;8.55;;;2.33;;
65096;SDS011;51686;46.758;4.356;2024-01-27T16:06:55;11.40;;;2.90;;
65096;SDS011;51686;46.758;4.356;2024-01-27T16:10:10;8.07;;;2.70;;
65096;SDS011;51686;46.758;4.356;2024-01-27T16:13:00;7.30;;;2.50;;
65096;SDS011;51686;46.758;4.356;2024-01-27T16:16:08;7.73;;;2.20;;
65096;SDS011;51686;46.758;4.356;2024-01-27T16:19:12;8.43;;;2.40;;
65096;SDS011;51686;46.758;4.356;2024-01-27T16:22:25;6.88;;;2.20;;
65096;SDS011;51686;46.758;4.356;2024-01-27T16:25:28;8.55;;;2.55;;
65096;SDS011;51686;46.758;4.356;2024-01-27T16:28:26;6.53;;;2.30;;
65096;SDS011;51686;46.758;4.356;2024-01-27T16:35:02;8.32;;;2.95;;
65096;SDS011;51686;46.758;4.356;2024-01-27T16:38:00;9.73;;;2.78;;
65096;SDS011;51686;46.758;4.356;2024-01-27T16:41:17;7.35;;;2.60;;
65096;SDS011;51686;46.758;4.356;2024-01-27T16:44:30;9.02;;;3.05;;
65096;SDS011;51686;46.758;4.356;2024-01-27T16:47:47;11.52;;;3.60;;
65096;SDS011;51686;46.758;4.356;2024-01-27T16:55:21;7.90;;;2.75;;
65096;SDS011;51686;46.758;4.356;2024-01-27T16:59:09;9.85;;;2.90;;
65096;SDS011;51686;46.758;4.356;2024-01-27T17:01:56;8.18;;;2.90;;
65096;SDS011;51686;46.758;4.356;2024-01-27T17:04:44;9.55;;;2.75;;
65096;SDS011;51686;46.758;4.356;2024-01-27T17:07:33;10.00;;;3.00;;
65096;SDS011;51686;46.758;4.356;2024-01-27T17:10:20;7.22;;;3.00;;
65096;SDS011;51686;46.758;4.356;2024-01-27T17:13:07;8.15;;;2.80;;
65096;SDS011;51686;46.758;4.356;2024-01-27T17:15:54;10.65;;;3.28;;
65096;SDS011;51686;46.758;4.356;2024-01-27T17:18:42;11.27;;;3.20;;
65096;SDS011;51686;46.758;4.356;2024-01-27T17:21:29;8.45;;;2.83;;
65096;SDS011;51686;46.758;4.356;2024-01-27T17:24:16;10.40;;;3.40;;
65096;SDS011;51686;46.758;4.356;2024-01-27T17:27:04;8.65;;;3.22;;
65096;SDS011;51686;46.758;4.356;2024-01-27T17:29:54;8.73;;;3.28;;
65096;SDS011;51686;46.758;4.356;2024-01-27T17:32:41;8.70;;;3.47;;
65096;SDS011;51686;46.758;4.356;2024-01-27T17:35:29;10.75;;;3.63;;
65096;SDS011;51686;46.758;4.356;2024-01-27T17:38:16;10.52;;;3.95;;